Time;durP1;ratioP1;P1;durP2;ratioP2;P2;SDS_P1;SDS_P2;PMS_P1;PMS_P2;Temp;Humidity;BMP_temperature;BMP_pressure;BME280_temperature;BME280_humidity;BME280_pressure;Samples;Min_cycle;Max_cycle;Signal;HPM_P1;HPM_P2
2021/06/11 00:00:45;;;;;;;1.95;1.85;;;15.70;99.90;;;;;;4966120;28;20906;-79
2021/06/11 00:03:11;;;;;;;2.30;1.98;;;15.60;99.90;;;;;;4964363;28;20217;-77
2021/06/11 00:05:37;;;;;;;2.17;1.98;;;15.60;99.90;;;;;;4965975;28;20219;-77
2021/06/11 00:08:03;;;;;;;2.60;2.40;;;15.50;99.90;;;;;;4964763;28;20192;-78
2021/06/11 00:10:29;;;;;;;3.83;2.50;;;15.50;99.90;;;;;;4966076;28;20212;-79
2021/06/11 00:12:55;;;;;;;2.45;2.00;;;15.40;99.90;;;;;;4965923;28;20212;-78
2021/06/11 00:15:21;;;;;;;2.85;2.28;;;15.40;99.90;;;;;;4965424;28;20208;-78
2021/06/11 00:17:47;;;;;;;2.40;2.20;;;15.40;99.90;;;;;;4965769;28;20192;-78
2021/06/11 00:20:12;;;;;;;2.72;2.28;;;15.40;99.90;;;;;;4965642;28;20609;-77
2021/06/11 00:22:38;;;;;;;3.08;2.20;;;15.30;99.90;;;;;;4964268;28;20216;-78
2021/06/11 00:25:12;;;;;;;2.00;1.83;;;15.20;99.90;;;;;;4965439;28;20303;-77
2021/06/11 00:27:38;;;;;;;2.50;2.30;;;15.20;99.90;;;;;;4964183;28;20181;-77
2021/06/11 00:30:05;;;;;;;2.53;2.15;;;15.00;99.90;;;;;;4965706;28;20234;-78
2021/06/11 00:32:31;;;;;;;2.42;2.20;;;14.90;99.90;;;;;;4964137;28;20566;-79
2021/06/11 00:34:57;;;;;;;3.22;2.78;;;14.80;99.90;;;;;;4963179;28;20188;-79
2021/06/11 00:37:23;;;;;;;2.75;2.42;;;14.80;99.90;;;;;;4965405;28;20203;-77
2021/06/11 00:39:48;;;;;;;3.38;2.70;;;14.70;99.90;;;;;;4963844;28;20189;-78
2021/06/11 00:42:14;;;;;;;3.13;2.38;;;14.70;99.90;;;;;;4965283;28;20205;-77
2021/06/11 00:44:40;;;;;;;3.45;2.22;;;14.70;99.90;;;;;;4963884;28;20877;-77
2021/06/11 00:47:05;;;;;;;3.67;2.78;;;14.60;99.90;;;;;;4964272;28;20177;-76
2021/06/11 00:49:31;;;;;;;2.50;2.30;;;14.70;99.90;;;;;;4965322;28;20775;-77
2021/06/11 00:51:57;;;;;;;2.85;2.00;;;14.70;99.90;;;;;;4963638;28;20189;-77
2021/06/11 00:54:23;;;;;;;3.60;2.28;;;14.60;99.90;;;;;;4964684;28;20195;-78
2021/06/11 00:56:48;;;;;;;6.40;2.25;;;14.50;99.90;;;;;;4963696;28;20209;-76
2021/06/11 00:59:16;;;;;;;2.95;2.20;;;14.50;99.90;;;;;;4965028;28;20207;-77
2021/06/11 01:01:42;;;;;;;2.20;2.00;;;14.60;99.90;;;;;;4963523;28;20189;-79
2021/06/11 01:04:09;;;;;;;2.58;2.08;;;14.60;99.90;;;;;;4964637;28;20180;-77
2021/06/11 01:06:37;;;;;;;3.03;2.22;;;14.50;99.90;;;;;;4963179;28;20219;-77
2021/06/11 01:09:03;;;;;;;4.50;2.38;;;14.50;99.90;;;;;;4964662;28;20182;-78
2021/06/11 01:11:28;;;;;;;3.03;2.72;;;14.60;99.90;;;;;;4964591;28;20255;-78
2021/06/11 01:13:56;;;;;;;2.95;2.50;;;14.60;99.90;;;;;;4964406;28;20185;-78
2021/06/11 01:16:22;;;;;;;2.70;2.50;;;14.60;99.90;;;;;;4963541;28;20212;-79
2021/06/11 01:18:47;;;;;;;3.83;2.75;;;14.50;99.90;;;;;;4962760;28;20217;-77
2021/06/11 01:21:13;;;;;;;2.90;2.13;;;14.40;99.90;;;;;;4965378;28;20617;-78
2021/06/11 01:24:01;;;;;;;2.63;2.17;;;14.50;99.90;;;;;;4963758;28;20216;-76
2021/06/11 01:26:37;;;;;;;2.40;1.95;;;14.50;99.90;;;;;;4963527;28;20212;-81
2021/06/11 01:29:07;;;;;;;2.33;1.90;;;14.60;99.90;;;;;;4963691;28;20185;-79
2021/06/11 01:31:35;;;;;;;2.50;2.20;;;14.60;99.90;;;;;;4963783;28;20184;-78
2021/06/11 01:34:32;;;;;;;2.83;2.20;;;14.60;99.90;;;;;;4965581;28;20566;-76
2021/06/11 01:37:11;;;;;;;2.53;2.33;;;14.40;99.90;;;;;;4973329;28;20626;-79
2021/06/11 01:39:39;;;;;;;2.45;2.25;;;14.20;99.90;;;;;;4965445;28;20176;-79
2021/06/11 01:42:05;;;;;;;2.50;2.30;;;14.10;99.90;;;;;;4964755;28;20566;-77
2021/06/11 01:44:31;;;;;;;3.00;2.47;;;14.10;99.90;;;;;;4965285;28;20246;-78
2021/06/11 01:47:01;;;;;;;2.50;2.30;;;14.10;99.90;;;;;;4963291;28;20215;-78
2021/06/11 01:49:29;;;;;;;3.35;2.58;;;14.10;99.90;;;;;;4964891;28;20220;-78
2021/06/11 01:51:56;;;;;;;3.05;2.75;;;14.00;99.90;;;;;;4964842;28;20189;-78
2021/06/11 01:54:22;;;;;;;3.88;2.63;;;14.00;99.90;;;;;;4963224;28;20188;-78
2021/06/11 01:56:48;;;;;;;3.83;3.05;;;14.00;99.90;;;;;;4964830;28;20229;-78
2021/06/11 01:59:15;;;;;;;2.80;2.40;;;14.00;99.90;;;;;;4964108;28;20212;-81
2021/06/11 02:01:42;;;;;;;2.50;2.25;;;14.00;99.90;;;;;;4960936;28;20277;-79
2021/06/11 02:04:08;;;;;;;3.65;2.40;;;14.00;99.90;;;;;;4964630;28;20181;-77
2021/06/11 02:06:35;;;;;;;2.55;2.35;;;14.00;99.90;;;;;;4964143;28;20266;-76
2021/06/11 02:09:01;;;;;;;2.67;2.30;;;14.00;99.90;;;;;;4964255;28;20204;-76
2021/06/11 02:11:27;;;;;;;4.20;2.30;;;14.00;99.90;;;;;;4965071;28;20192;-76
2021/06/11 02:13:55;;;;;;;3.00;2.70;;;14.00;99.90;;;;;;4963545;28;20235;-79
2021/06/11 02:16:24;;;;;;;2.63;2.40;;;14.20;99.90;;;;;;4962907;28;20221;-77
2021/06/11 02:18:50;;;;;;;3.22;2.38;;;14.20;99.90;;;;;;4964327;28;20196;-78
2021/06/11 02:21:18;;;;;;;2.45;2.25;;;14.30;99.90;;;;;;4964503;28;20196;-77
2021/06/11 02:23:43;;;;;;;3.38;2.55;;;14.30;99.90;;;;;;4963145;28;20270;-79
2021/06/11 02:26:14;;;;;;;2.70;2.50;;;14.20;99.90;;;;;;4962543;28;20196;-77
2021/06/11 02:28:40;;;;;;;3.53;2.63;;;14.10;99.90;;;;;;4963259;28;20197;-77
2021/06/11 02:31:06;;;;;;;3.53;2.63;;;14.00;99.90;;;;;;4963813;28;20277;-79
2021/06/11 02:33:32;;;;;;;6.18;3.10;;;14.00;99.90;;;;;;4962835;28;20189;-77
2021/06/11 02:35:58;;;;;;;3.78;3.05;;;13.90;99.90;;;;;;4962762;28;20315;-79
2021/06/11 02:38:24;;;;;;;3.63;2.72;;;13.80;99.90;;;;;;4962911;28;20198;-77
2021/06/11 02:40:51;;;;;;;4.07;3.05;;;13.80;99.90;;;;;;4963026;28;20672;-78
2021/06/11 02:43:19;;;;;;;2.70;2.50;;;13.80;99.90;;;;;;4964107;28;20244;-77
2021/06/11 02:46:04;;;;;;;3.38;2.25;;;13.80;99.90;;;;;;4963655;28;20212;-76
2021/06/11 02:48:38;;;;;;;3.58;2.92;;;13.70;99.90;;;;;;4964022;28;20204;-78
2021/06/11 02:51:18;;;;;;;3.47;2.63;;;13.70;99.90;;;;;;4962153;28;20177;-76
2021/06/11 02:53:46;;;;;;;3.17;2.80;;;13.80;99.90;;;;;;4963575;28;20189;-77
2021/06/11 02:56:20;;;;;;;5.07;3.03;;;13.80;99.90;;;;;;4962695;28;20254;-77
2021/06/11 02:58:50;;;;;;;2.85;2.47;;;13.80;99.90;;;;;;4963329;28;20201;-76
2021/06/11 03:01:17;;;;;;;2.80;2.58;;;13.80;99.90;;;;;;4964000;28;20292;-77
2021/06/11 03:03:44;;;;;;;4.03;2.80;;;13.90;99.90;;;;;;4963886;28;20269;-77
2021/06/11 03:06:12;;;;;;;3.60;2.90;;;13.80;99.90;;;;;;4964140;28;20217;-76
2021/06/11 03:08:42;;;;;;;3.65;2.42;;;13.70;99.90;;;;;;4962987;28;20189;-78
2021/06/11 03:11:14;;;;;;;4.22;2.90;;;13.70;99.90;;;;;;4963922;28;20181;-78
2021/06/11 03:13:42;;;;;;;3.20;2.90;;;13.60;99.90;;;;;;4964147;28;20185;-78
2021/06/11 03:16:08;;;;;;;3.20;2.78;;;13.60;99.90;;;;;;4963402;28;20649;-78
2021/06/11 03:18:55;;;;;;;3.08;2.63;;;13.60;99.90;;;;;;4966035;28;20696;-76
2021/06/11 03:21:27;;;;;;;3.38;2.60;;;13.60;99.90;;;;;;4981460;28;20599;-77
2021/06/11 03:24:00;;;;;;;5.10;3.28;;;13.50;99.90;;;;;;4966618;28;20208;-77
2021/06/11 03:27:04;;;;;;;3.60;2.38;;;13.40;99.90;;;;;;4966256;28;20205;-81
2021/06/11 03:29:35;;;;;;;2.85;2.58;;;13.40;99.90;;;;;;4965126;28;20197;-77
2021/06/11 03:32:06;;;;;;;3.75;2.90;;;13.30;99.90;;;;;;4967214;28;20501;-77
2021/06/11 03:34:41;;;;;;;3.92;2.70;;;13.50;99.90;;;;;;4966766;28;20363;-79
2021/06/11 03:37:12;;;;;;;4.05;3.33;;;13.60;99.90;;;;;;4967375;28;20630;-77
2021/06/11 03:39:53;;;;;;;3.30;2.95;;;13.70;99.90;;;;;;4967374;28;20650;-80
2021/06/11 03:42:19;;;;;;;3.35;3.03;;;13.60;99.90;;;;;;4967543;28;20224;-78
2021/06/11 03:44:48;;;;;;;6.47;3.25;;;13.70;99.90;;;;;;4966602;28;20185;-78
2021/06/11 03:47:17;;;;;;;3.20;2.55;;;13.80;99.90;;;;;;4965613;28;20185;-81
2021/06/11 03:49:45;;;;;;;4.50;2.95;;;13.90;99.90;;;;;;4966944;28;20281;-77
2021/06/11 03:52:13;;;;;;;3.00;2.67;;;13.90;99.90;;;;;;4965075;28;20238;-79
2021/06/11 03:54:42;;;;;;;3.72;2.90;;;14.00;99.90;;;;;;4964887;28;20220;-77
2021/06/11 03:57:09;;;;;;;3.25;2.95;;;14.10;99.90;;;;;;4966789;28;20228;-79
2021/06/11 03:59:36;;;;;;;2.70;2.40;;;14.10;99.90;;;;;;4966840;28;20220;-79
2021/06/11 04:02:04;;;;;;;2.80;2.42;;;14.20;99.90;;;;;;4965536;28;20208;-78
2021/06/11 04:04:30;;;;;;;3.60;3.30;;;14.30;99.90;;;;;;4965857;28;20192;-78
2021/06/11 04:07:03;;;;;;;3.35;3.00;;;14.20;99.90;;;;;;4965906;28;20216;-77
2021/06/11 04:09:37;;;;;;;3.30;3.00;;;14.30;99.90;;;;;;4964668;28;20529;-78
2021/06/11 04:12:07;;;;;;;4.03;3.05;;;14.20;99.90;;;;;;4965475;28;20588;-78
2021/06/11 04:14:42;;;;;;;3.65;2.80;;;14.30;99.90;;;;;;4964268;28;20204;-79
2021/06/11 04:17:11;;;;;;;4.20;3.00;;;14.30;99.90;;;;;;4964954;28;20426;-78
2021/06/11 04:19:55;;;;;;;3.92;3.15;;;14.40;99.90;;;;;;4963006;28;20192;-79
2021/06/11 04:22:27;;;;;;;2.95;2.58;;;14.30;99.90;;;;;;4962323;28;20213;-79
2021/06/11 04:24:56;;;;;;;2.85;2.53;;;14.30;99.90;;;;;;4963399;28;20181;-77
2021/06/11 04:27:22;;;;;;;2.50;2.30;;;14.60;99.90;;;;;;4964735;28;20185;-79
2021/06/11 04:29:49;;;;;;;2.47;2.28;;;15.20;99.90;;;;;;4964646;28;20242;-78
2021/06/11 04:32:15;;;;;;;3.95;2.67;;;15.90;99.90;;;;;;4967572;28;20267;-80
2021/06/11 04:34:41;;;;;;;2.95;2.65;;;16.50;99.90;;;;;;4965820;28;20211;-78
2021/06/11 04:37:07;;;;;;;5.38;2.80;;;16.80;99.90;;;;;;4965524;28;20658;-79
2021/06/11 04:39:32;;;;;;;3.80;2.80;;;17.10;99.90;;;;;;4963277;28;20196;-78
2021/06/11 04:41:58;;;;;;;2.83;2.53;;;17.10;99.90;;;;;;4966606;28;20662;-78
2021/06/11 04:44:24;;;;;;;2.97;2.70;;;17.20;99.90;;;;;;4966161;28;20189;-77
2021/06/11 04:46:49;;;;;;;4.30;3.05;;;17.40;99.90;;;;;;4965699;28;20211;-77
2021/06/11 04:49:15;;;;;;;3.08;2.78;;;17.80;99.90;;;;;;4963799;28;20181;-77
2021/06/11 04:51:40;;;;;;;4.95;2.40;;;18.40;99.90;;;;;;4965599;28;20189;-77
2021/06/11 04:54:07;;;;;;;3.17;2.15;;;18.90;99.90;;;;;;4966098;28;20185;-78
2021/06/11 04:56:32;;;;;;;2.60;2.40;;;19.50;99.90;;;;;;4965504;28;20789;-78
2021/06/11 04:58:59;;;;;;;2.90;2.28;;;20.40;99.90;;;;;;4965464;28;20264;-78
2021/06/11 05:01:25;;;;;;;4.07;2.40;;;21.30;99.90;;;;;;4979777;28;20658;-78
2021/06/11 05:03:51;;;;;;;2.47;2.28;;;22.00;99.90;;;;;;4962551;28;20276;-78
2021/06/11 05:06:17;;;;;;;2.88;2.35;;;22.40;99.90;;;;;;4962995;28;20274;-79
2021/06/11 05:08:43;;;;;;;2.65;2.33;;;22.60;99.90;;;;;;4962443;28;20185;-77
2021/06/11 05:11:09;;;;;;;2.90;2.60;;;22.90;99.90;;;;;;4964160;28;20228;-78
2021/06/11 05:13:35;;;;;;;2.97;2.47;;;23.30;99.90;;;;;;4961928;28;20231;-79
2021/06/11 05:16:00;;;;;;;3.72;2.72;;;23.20;99.90;;;;;;4962127;28;20236;-77
2021/06/11 05:18:28;;;;;;;5.20;2.58;;;22.90;99.90;;;;;;4963748;28;20193;-77
2021/06/11 05:20:54;;;;;;;2.65;2.45;;;22.80;99.90;;;;;;4962044;28;20193;-78
2021/06/11 05:23:19;;;;;;;4.60;2.55;;;22.70;99.90;;;;;;4964043;28;20685;-78
2021/06/11 05:25:47;;;;;;;3.22;2.75;;;22.80;99.90;;;;;;4963299;28;20211;-78
2021/06/11 05:28:13;;;;;;;4.72;2.60;;;23.10;99.90;;;;;;4964610;28;20589;-78
2021/06/11 05:30:39;;;;;;;3.17;2.72;;;23.70;99.90;;;;;;4963601;28;20195;-78
2021/06/11 05:33:05;;;;;;;4.00;2.88;;;24.20;99.90;;;;;;4963955;28;20446;-79
2021/06/11 05:35:31;;;;;;;3.33;2.67;;;24.70;99.90;;;;;;4962788;28;20312;-78
2021/06/11 05:37:58;;;;;;;3.42;3.10;;;25.30;99.90;;;;;;4963483;28;20483;-79
2021/06/11 05:40:24;;;;;;;3.10;2.80;;;25.60;99.90;;;;;;4961543;28;20181;-78
2021/06/11 05:42:50;;;;;;;3.47;2.50;;;25.80;99.90;;;;;;4961575;28;20208;-78
2021/06/11 05:45:15;;;;;;;3.17;2.55;;;25.90;99.90;;;;;;4962902;28;20427;-79
2021/06/11 05:47:41;;;;;;;3.67;2.60;;;26.10;99.90;;;;;;4963783;28;20221;-79
2021/06/11 05:50:08;;;;;;;4.45;2.88;;;26.20;99.90;;;;;;4961925;28;20233;-79
2021/06/11 05:52:35;;;;;;;4.47;2.78;;;26.40;99.90;;;;;;4962506;28;20194;-79
2021/06/11 05:55:01;;;;;;;3.58;2.70;;;26.60;99.90;;;;;;4963921;28;20231;-80
2021/06/11 05:57:27;;;;;;;4.43;2.95;;;26.90;99.90;;;;;;4962303;28;20216;-79
2021/06/11 05:59:55;;;;;;;3.08;2.78;;;26.90;99.90;;;;;;4964167;28;20213;-79
2021/06/11 06:02:24;;;;;;;4.18;2.70;;;26.90;99.90;;;;;;4961384;28;20209;-79
2021/06/11 06:04:50;;;;;;;2.97;2.72;;;26.90;99.90;;;;;;4960566;28;20185;-78
2021/06/11 06:07:15;;;;;;;4.18;2.78;;;27.10;99.90;;;;;;4963507;28;20810;-79
2021/06/11 06:09:41;;;;;;;3.08;2.78;;;27.40;99.90;;;;;;4964087;28;20218;-79
2021/06/11 06:12:08;;;;;;;2.85;2.65;;;27.40;99.90;;;;;;4963684;28;20185;-79
2021/06/11 06:14:34;;;;;;;3.00;2.70;;;27.60;99.90;;;;;;4963919;28;20538;-79
2021/06/11 06:16:59;;;;;;;3.38;3.08;;;27.80;99.90;;;;;;4962230;28;20216;-79
2021/06/11 06:19:25;;;;;;;3.08;2.88;;;27.90;99.90;;;;;;4963698;28;20193;-79
2021/06/11 06:21:51;;;;;;;2.78;2.55;;;27.90;99.90;;;;;;4977065;28;20204;-79
2021/06/11 06:24:17;;;;;;;2.72;2.53;;;28.10;99.90;;;;;;4960840;28;20670;-78
2021/06/11 06:26:43;;;;;;;6.00;3.83;;;28.30;99.90;;;;;;4960989;28;20287;-78
2021/06/11 06:29:08;;;;;;;3.45;3.15;;;28.50;99.90;;;;;;4961621;28;20822;-79
2021/06/11 06:31:34;;;;;;;3.85;3.20;;;28.60;99.90;;;;;;4962228;28;20280;-79
2021/06/11 06:34:00;;;;;;;3.90;3.60;;;28.20;99.90;;;;;;4962330;28;20274;-78
2021/06/11 06:36:25;;;;;;;3.58;3.28;;;28.10;99.90;;;;;;4963278;28;20227;-78
2021/06/11 06:38:52;;;;;;;3.50;3.20;;;28.10;99.90;;;;;;4963390;28;20185;-78
2021/06/11 06:41:19;;;;;;;2.92;2.72;;;27.50;99.90;;;;;;4963107;28;20204;-80
2021/06/11 06:43:45;;;;;;;5.28;3.13;;;26.90;99.90;;;;;;4963223;28;20228;-78
2021/06/11 06:46:11;;;;;;;3.40;3.10;;;26.30;99.90;;;;;;4961326;28;20201;-78
2021/06/11 06:48:36;;;;;;;3.10;2.80;;;25.80;99.90;;;;;;4960227;28;20185;-78
2021/06/11 06:51:03;;;;;;;3.28;2.85;;;25.40;99.90;;;;;;4960845;28;20922;-76
2021/06/11 06:53:28;;;;;;;3.38;3.08;;;25.30;99.90;;;;;;4963415;28;20185;-76
2021/06/11 06:55:54;;;;;;;2.75;2.55;;;25.10;99.90;;;;;;4963261;28;20684;-77
2021/06/11 06:58:20;;;;;;;2.90;2.70;;;25.10;99.90;;;;;;4963801;28;20268;-76
2021/06/11 07:00:45;;;;;;;3.47;2.92;;;24.90;99.90;;;;;;4963488;28;20200;-77
2021/06/11 07:03:11;;;;;;;3.50;2.70;;;24.80;99.90;;;;;;4963384;28;20204;-76
2021/06/11 07:05:37;;;;;;;3.42;2.47;;;24.80;99.90;;;;;;4963044;28;20217;-76
2021/06/11 07:08:03;;;;;;;2.67;2.45;;;24.90;99.90;;;;;;4963716;28;20195;-76
2021/06/11 07:10:28;;;;;;;2.50;2.13;;;24.90;99.90;;;;;;4963524;28;20549;-76
2021/06/11 07:12:55;;;;;;;3.78;1.90;;;25.10;99.90;;;;;;4963593;28;20189;-77
2021/06/11 07:15:21;;;;;;;1.85;1.67;;;25.20;99.90;;;;;;4962524;28;20767;-76
2021/06/11 07:17:47;;;;;;;3.15;2.42;;;25.20;99.90;;;;;;4963330;28;20308;-79
2021/06/11 07:20:13;;;;;;;2.45;1.88;;;25.00;99.90;;;;;;4963231;28;20256;-78
2021/06/11 07:22:39;;;;;;;2.60;2.40;;;24.90;99.90;;;;;;4966539;28;20584;-77
2021/06/11 07:25:06;;;;;;;3.17;2.17;;;25.10;99.90;;;;;;4967066;28;20209;-77
2021/06/11 07:27:33;;;;;;;2.08;1.88;;;25.00;99.90;;;;;;4963878;28;20536;-77
2021/06/11 07:30:07;;;;;;;1.95;1.77;;;25.10;99.90;;;;;;4963439;28;20184;-77
2021/06/11 07:32:33;;;;;;;2.05;1.60;;;25.30;99.90;;;;;;4965240;28;20739;-77
2021/06/11 07:34:59;;;;;;;1.92;1.73;;;25.30;99.90;;;;;;4964995;28;20193;-78
2021/06/11 07:37:24;;;;;;;2.42;1.67;;;25.30;99.90;;;;;;4965130;28;20192;-77
2021/06/11 07:39:50;;;;;;;1.98;1.67;;;25.30;99.90;;;;;;4964556;28;20611;-78
2021/06/11 07:42:16;;;;;;;2.10;1.42;;;25.40;99.90;;;;;;4964724;28;20666;-78
2021/06/11 07:44:42;;;;;;;2.55;1.83;;;25.50;99.90;;;;;;4962108;28;20557;-78
2021/06/11 07:47:08;;;;;;;2.72;1.60;;;25.50;99.90;;;;;;4963182;28;20288;-78
2021/06/11 07:49:34;;;;;;;2.83;1.77;;;25.60;94.80;;;;;;4961921;28;20266;-78
2021/06/11 07:52:00;;;;;;;2.75;2.17;;;25.80;95.90;;;;;;4961236;28;20458;-78
2021/06/11 07:54:26;;;;;;;2.47;1.90;;;25.90;96.50;;;;;;4963079;28;20669;-78
2021/06/11 07:56:52;;;;;;;3.45;2.20;;;26.00;99.80;;;;;;4964442;28;20657;-77
2021/06/11 07:59:20;;;;;;;2.97;2.45;;;26.00;99.90;;;;;;4963522;28;20251;-76
2021/06/11 08:01:46;;;;;;;4.32;2.30;;;26.30;98.70;;;;;;4963033;28;20642;-78
2021/06/11 08:04:12;;;;;;;3.28;2.60;;;26.60;99.00;;;;;;4961995;28;20213;-78
2021/06/11 08:06:39;;;;;;;3.00;2.50;;;27.10;96.80;;;;;;4962926;28;20588;-78
2021/06/11 08:09:05;;;;;;;2.83;2.50;;;27.30;96.70;;;;;;4965596;28;20233;-78
2021/06/11 08:11:30;;;;;;;3.72;2.42;;;27.50;98.10;;;;;;4962883;28;20807;-78
2021/06/11 08:13:56;;;;;;;3.55;2.75;;;27.70;96.30;;;;;;4963205;28;20189;-78
2021/06/11 08:16:23;;;;;;;3.05;2.75;;;27.80;96.20;;;;;;4962721;28;20467;-78
2021/06/11 08:18:48;;;;;;;4.50;3.08;;;27.80;96.00;;;;;;4962960;28;20185;-78
2021/06/11 08:21:14;;;;;;;2.55;2.30;;;28.00;95.60;;;;;;4962506;28;20196;-78
2021/06/11 08:23:41;;;;;;;3.35;3.05;;;28.30;95.40;;;;;;4963214;28;20213;-78
2021/06/11 08:26:06;;;;;;;4.25;2.58;;;28.30;94.60;;;;;;4962636;28;20198;-78
2021/06/11 08:28:32;;;;;;;2.95;2.35;;;28.20;95.70;;;;;;4962954;28;20198;-78
2021/06/11 08:30:58;;;;;;;2.85;2.17;;;28.00;95.50;;;;;;4964844;28;21005;-79
2021/06/11 08:33:23;;;;;;;2.90;2.53;;;27.70;95.30;;;;;;4964233;28;20208;-78
2021/06/11 08:35:49;;;;;;;6.18;2.92;;;27.40;94.90;;;;;;4964146;28;20582;-77
2021/06/11 08:38:14;;;;;;;3.25;2.55;;;27.30;96.00;;;;;;4963947;28;20191;-77
2021/06/11 08:40:40;;;;;;;2.83;2.45;;;27.00;96.50;;;;;;4964525;28;20192;-77
2021/06/11 08:43:06;;;;;;;2.85;2.42;;;27.00;99.40;;;;;;4964062;28;20204;-77
2021/06/11 08:45:32;;;;;;;3.63;2.88;;;27.10;97.00;;;;;;4963796;28;20236;-78
2021/06/11 08:47:58;;;;;;;5.90;2.83;;;27.30;97.20;;;;;;4960576;28;20185;-78
2021/06/11 08:50:32;;;;;;;2.78;2.33;;;27.20;95.30;;;;;;4962186;28;20185;-78
2021/06/11 08:52:59;;;;;;;2.75;2.53;;;27.20;95.70;;;;;;4960605;28;20195;-78
2021/06/11 08:55:26;;;;;;;3.15;2.63;;;27.20;96.00;;;;;;4961576;28;20311;-78
2021/06/11 08:57:52;;;;;;;2.40;2.20;;;27.20;96.20;;;;;;4962093;28;20185;-78
2021/06/11 09:00:20;;;;;;;2.70;2.40;;;27.20;96.20;;;;;;4961718;28;20204;-78
2021/06/11 09:03:07;;;;;;;2.42;2.10;;;27.40;96.90;;;;;;4961535;28;20201;-77
2021/06/11 09:05:33;;;;;;;2.45;2.25;;;27.50;97.10;;;;;;4961563;28;20212;-77
2021/06/11 09:08:14;;;;;;;3.30;2.35;;;27.30;93.80;;;;;;4961915;28;20594;-77
2021/06/11 09:10:40;;;;;;;2.63;2.40;;;27.40;94.90;;;;;;4962023;28;20557;-78
2021/06/11 09:13:06;;;;;;;3.50;2.65;;;27.40;94.80;;;;;;4960184;28;20196;-78
2021/06/11 09:15:32;;;;;;;2.33;2.03;;;27.40;95.00;;;;;;4961626;28;20205;-77
2021/06/11 09:17:58;;;;;;;4.28;2.20;;;27.60;96.40;;;;;;4961664;28;20256;-77
2021/06/11 09:20:28;;;;;;;2.15;1.90;;;27.60;94.30;;;;;;4960367;28;20207;-78
2021/06/11 09:23:00;;;;;;;2.17;2.00;;;27.70;94.00;;;;;;4961171;28;20677;-77
2021/06/11 09:25:28;;;;;;;2.17;2.00;;;27.90;93.40;;;;;;4961460;28;20591;-77
2021/06/11 09:27:57;;;;;;;3.15;2.22;;;27.90;92.30;;;;;;4961609;28;20185;-78
2021/06/11 09:30:26;;;;;;;4.10;1.80;;;28.00;93.00;;;;;;4961792;28;20213;-78
2021/06/11 09:33:01;;;;;;;3.00;1.70;;;28.00;92.50;;;;;;4960444;28;20254;-78
2021/06/11 09:35:38;;;;;;;1.95;1.60;;;28.00;90.80;;;;;;4961457;28;20208;-79
2021/06/11 09:38:14;;;;;;;2.03;1.80;;;28.20;91.80;;;;;;4961418;28;20638;-77
2021/06/11 09:40:41;;;;;;;2.70;2.13;;;28.30;91.80;;;;;;4961707;28;20192;-78
2021/06/11 09:43:07;;;;;;;2.58;2.33;;;28.30;91.80;;;;;;4960484;28;20189;-78
2021/06/11 09:46:12;;;;;;;2.55;2.20;;;28.30;91.50;;;;;;4971094;28;20245;-78
2021/06/11 09:48:46;;;;;;;2.08;1.98;;;28.20;91.80;;;;;;4961657;28;20185;-78
2021/06/11 09:51:19;;;;;;;6.13;1.80;;;28.20;91.10;;;;;;4961450;28;20195;-78
2021/06/11 09:53:45;;;;;;;1.83;1.73;;;28.20;90.30;;;;;;4961723;28;20212;-77
2021/06/11 09:56:26;;;;;;;1.83;1.67;;;28.40;90.20;;;;;;4959958;28;20236;-78
2021/06/11 09:58:54;;;;;;;1.92;1.65;;;28.60;90.80;;;;;;4961733;28;20192;-77
2021/06/11 10:01:19;;;;;;;2.15;2.00;;;28.80;91.00;;;;;;4960847;28;20224;-77
2021/06/11 10:03:49;;;;;;;2.33;2.00;;;29.00;92.40;;;;;;4960761;28;20299;-76
2021/06/11 10:06:17;;;;;;;2.53;2.33;;;28.40;92.20;;;;;;4960752;28;20312;-77
2021/06/11 10:08:45;;;;;;;2.47;2.15;;;28.30;93.10;;;;;;4960005;28;20388;-77
2021/06/11 10:11:16;;;;;;;2.47;2.28;;;28.40;92.00;;;;;;4959513;28;20448;-77
2021/06/11 10:13:42;;;;;;;2.17;2.00;;;28.10;92.10;;;;;;4960526;28;20558;-77
2021/06/11 10:16:10;;;;;;;2.38;2.13;;;27.80;93.70;;;;;;4961155;28;20681;-76
2021/06/11 10:18:36;;;;;;;2.53;2.05;;;27.60;93.20;;;;;;4963936;28;20639;-76
2021/06/11 10:21:03;;;;;;;2.22;2.03;;;27.40;94.80;;;;;;4961013;28;20227;-77
2021/06/11 10:23:31;;;;;;;3.28;2.97;;;27.30;96.20;;;;;;4960650;28;20219;-76
2021/06/11 10:25:59;;;;;;;2.75;2.53;;;27.10;97.40;;;;;;4960464;28;20225;-78
2021/06/11 10:28:29;;;;;;;3.10;2.88;;;27.00;98.30;;;;;;4964223;28;20181;-77
2021/06/11 10:31:04;;;;;;;2.92;2.63;;;27.30;98.00;;;;;;4964054;28;20231;-77
2021/06/11 10:33:55;;;;;;;2.50;2.30;;;27.40;97.10;;;;;;4963959;28;20661;-77
2021/06/11 10:36:32;;;;;;;2.72;2.53;;;27.60;98.40;;;;;;4966757;28;20542;-77
2021/06/11 10:39:22;;;;;;;2.67;2.47;;;28.10;98.00;;;;;;4964459;28;20180;-77
2021/06/11 10:42:01;;;;;;;3.65;2.85;;;28.40;95.20;;;;;;4964278;28;20464;-77
2021/06/11 10:44:37;;;;;;;2.75;2.55;;;28.50;95.40;;;;;;4963956;28;20276;-77
2021/06/11 10:47:18;;;;;;;2.90;2.70;;;28.10;96.40;;;;;;4964140;28;20200;-77
2021/06/11 10:50:06;;;;;;;3.13;2.83;;;27.70;96.00;;;;;;4964116;28;20551;-77
2021/06/11 10:52:35;;;;;;;3.30;2.50;;;27.60;95.90;;;;;;4963941;28;20189;-76
2021/06/11 10:55:24;;;;;;;2.97;2.78;;;27.40;97.40;;;;;;4964121;28;20239;-76
2021/06/11 10:57:52;;;;;;;4.38;2.42;;;27.50;98.00;;;;;;4964052;28;20185;-76
2021/06/11 11:00:26;;;;;;;2.85;2.65;;;27.40;98.80;;;;;;4963868;28;20242;-77
2021/06/11 11:02:53;;;;;;;2.75;2.47;;;27.30;98.80;;;;;;4963658;28;20252;-77
2021/06/11 11:05:34;;;;;;;3.60;3.22;;;27.20;97.80;;;;;;4963330;28;20208;-77
2021/06/11 11:08:01;;;;;;;3.00;2.70;;;27.00;99.00;;;;;;4963767;28;20276;-77
2021/06/11 11:10:54;;;;;;;2.95;2.75;;;27.00;99.70;;;;;;4963927;28;20227;-76
2021/06/11 11:13:28;;;;;;;4.57;2.85;;;27.10;98.40;;;;;;4962487;28;20185;-76
2021/06/11 11:15:57;;;;;;;2.63;2.42;;;27.30;96.80;;;;;;4963155;28;20232;-76
2021/06/11 11:18:31;;;;;;;2.88;2.67;;;27.50;98.00;;;;;;4963485;28;20989;-76
2021/06/11 11:20:58;;;;;;;3.42;2.83;;;28.10;97.20;;;;;;4963621;28;20192;-77
2021/06/11 11:23:26;;;;;;;3.33;2.97;;;28.40;96.20;;;;;;4963022;28;20517;-77
2021/06/11 11:25:52;;;;;;;3.30;3.00;;;28.20;93.50;;;;;;4963220;28;21013;-76
2021/06/11 11:28:18;;;;;;;2.80;2.60;;;28.10;92.70;;;;;;4963565;28;20189;-76
2021/06/11 11:30:46;;;;;;;3.63;2.90;;;28.40;94.50;;;;;;4962898;28;20192;-76
2021/06/11 11:33:13;;;;;;;5.32;3.00;;;28.80;94.40;;;;;;4963633;28;20185;-77
2021/06/11 11:35:46;;;;;;;2.85;2.60;;;29.10;95.10;;;;;;4963312;28;20205;-76
2021/06/11 11:38:12;;;;;;;3.75;2.90;;;29.30;93.90;;;;;;4961772;28;20185;-77
2021/06/11 11:40:42;;;;;;;2.65;2.22;;;29.40;93.00;;;;;;4963134;28;20192;-78
2021/06/11 11:43:08;;;;;;;3.00;2.80;;;29.60;93.10;;;;;;4962635;28;20219;-77
2021/06/11 11:45:33;;;;;;;2.80;2.60;;;30.00;93.10;;;;;;4962717;28;20565;-77
2021/06/11 11:48:02;;;;;;;3.20;2.90;;;29.80;91.70;;;;;;4962924;28;20197;-78
2021/06/11 11:50:30;;;;;;;3.83;2.65;;;29.80;93.00;;;;;;4962886;28;20185;-76
2021/06/11 11:52:56;;;;;;;4.18;2.75;;;29.70;91.30;;;;;;4962882;28;20388;-77
2021/06/11 11:55:22;;;;;;;3.78;2.58;;;29.70;92.20;;;;;;4962784;28;20591;-76
2021/06/11 11:57:48;;;;;;;2.88;2.45;;;29.30;91.30;;;;;;4962613;28;20185;-76
2021/06/11 12:00:15;;;;;;;2.67;2.47;;;29.30;92.00;;;;;;4961949;28;20275;-76
2021/06/11 12:02:42;;;;;;;3.45;2.63;;;29.30;93.20;;;;;;4961837;28;20623;-77
2021/06/11 12:05:09;;;;;;;5.22;3.05;;;29.10;93.90;;;;;;4960204;28;20668;-77
2021/06/11 12:07:35;;;;;;;2.72;2.53;;;29.30;95.10;;;;;;4961052;28;20288;-76
2021/06/11 12:10:01;;;;;;;3.47;2.90;;;29.30;95.30;;;;;;4962279;28;20224;-76
2021/06/11 12:12:27;;;;;;;3.10;2.88;;;29.20;96.10;;;;;;4961388;28;20272;-76
2021/06/11 12:14:53;;;;;;;2.97;2.78;;;29.20;95.20;;;;;;4962035;28;20205;-77
2021/06/11 12:17:19;;;;;;;3.05;2.75;;;29.20;95.40;;;;;;4962317;28;20334;-77
2021/06/11 12:19:45;;;;;;;3.40;3.10;;;29.30;95.20;;;;;;4962525;28;20272;-76
2021/06/11 12:22:10;;;;;;;2.80;2.50;;;29.10;93.80;;;;;;4961850;28;20185;-76
2021/06/11 12:24:36;;;;;;;2.90;2.67;;;29.00;94.90;;;;;;4962413;28;20314;-77
2021/06/11 12:27:03;;;;;;;3.05;2.78;;;28.90;94.90;;;;;;4962147;28;20577;-76
2021/06/11 12:29:28;;;;;;;2.92;2.72;;;28.80;93.30;;;;;;4962447;28;20771;-77
2021/06/11 12:31:54;;;;;;;2.50;2.30;;;28.90;95.00;;;;;;4962106;28;20224;-77
2021/06/11 12:34:20;;;;;;;3.28;2.67;;;28.90;94.50;;;;;;4960594;28;20188;-77
2021/06/11 12:36:45;;;;;;;3.17;2.28;;;28.80;93.10;;;;;;4961978;28;20209;-76
2021/06/11 12:39:12;;;;;;;2.78;2.28;;;28.70;94.10;;;;;;4961834;28;20567;-77
2021/06/11 12:41:38;;;;;;;2.85;2.55;;;28.90;94.70;;;;;;4962235;28;20678;-76
2021/06/11 12:44:15;;;;;;;3.78;2.10;;;29.10;95.00;;;;;;4961912;28;20249;-76
2021/06/11 12:46:53;;;;;;;3.10;2.80;;;28.80;94.90;;;;;;4961953;28;20407;-77
2021/06/11 12:49:20;;;;;;;3.00;2.80;;;28.60;95.60;;;;;;4964818;28;20180;-76
2021/06/11 12:51:46;;;;;;;2.90;2.60;;;28.60;94.80;;;;;;4962710;28;20181;-77
2021/06/11 12:54:12;;;;;;;2.40;2.20;;;28.60;95.90;;;;;;4960281;28;20193;-76